Time;durP1;ratioP1;P1;durP2;ratioP2;P2;SDS_P1;SDS_P2;PMS_P1;PMS_P2;Temp;Humidity;BMP_temperature;BMP_pressure;BME280_temperature;BME280_humidity;BME280_pressure;Samples;Min_cycle;Max_cycle;Signal;HPM_P1;HPM_P2
2022/08/22 00:01:38;;;;;;;5.10;3.40;;;20.80;99.90;;;;;;6094459;23;20436;-84
2022/08/22 00:04:41;;;;;;;5.90;3.30;;;20.80;99.90;;;;;;6228468;23;20391;-84
2022/08/22 00:07:28;;;;;;;8.27;3.93;;;20.70;99.90;;;;;;6246279;23;20423;-84
2022/08/22 00:10:14;;;;;;;8.63;3.53;;;20.70;99.90;;;;;;6246558;22;20397;-85
2022/08/22 00:12:46;;;;;;;8.80;3.57;;;20.60;99.90;;;;;;6245998;23;20374;-84
2022/08/22 00:15:19;;;;;;;5.90;3.20;;;20.60;99.90;;;;;;6245612;23;20378;-85
2022/08/22 00:17:59;;;;;;;8.30;3.40;;;20.60;99.90;;;;;;6245143;23;20478;-84
2022/08/22 00:20:45;;;;;;;8.20;4.10;;;20.50;99.90;;;;;;6246071;23;20394;-85
2022/08/22 00:23:33;;;;;;;5.27;3.20;;;20.40;99.90;;;;;;6245656;23;20695;-84
2022/08/22 00:26:08;;;;;;;11.37;3.83;;;20.30;99.90;;;;;;6218289;23;20457;-85
2022/08/22 00:29:00;;;;;;;12.80;4.00;;;20.30;99.90;;;;;;6248341;22;20413;-89
2022/08/22 00:31:42;;;;;;;5.07;3.17;;;20.30;99.90;;;;;;6224270;23;20398;-84
2022/08/22 00:34:22;;;;;;;6.60;3.73;;;20.20;99.90;;;;;;6224999;23;20373;-88
2022/08/22 00:37:53;;;;;;;8.60;4.57;;;20.20;99.90;;;;;;6224521;23;20381;-84
2022/08/22 00:40:45;;;;;;;8.13;4.00;;;20.10;99.90;;;;;;6124373;23;20404;-87
2022/08/22 00:43:33;;;;;;;10.90;5.07;;;20.10;99.90;;;;;;6104323;23;20461;-84
2022/08/22 00:46:33;;;;;;;8.67;4.60;;;20.10;99.90;;;;;;6221013;23;20680;-84
2022/08/22 00:49:24;;;;;;;10.87;4.60;;;20.10;99.90;;;;;;6250406;23;20605;-86
2022/08/22 00:52:16;;;;;;;7.47;4.33;;;20.10;99.90;;;;;;6168726;23;20422;-84
2022/08/22 00:54:46;;;;;;;5.93;4.47;;;20.10;99.90;;;;;;6225428;23;20380;-84
2022/08/22 00:57:26;;;;;;;9.87;5.20;;;20.10;99.90;;;;;;6224474;23;20411;-85
2022/08/22 01:00:26;;;;;;;12.10;4.83;;;20.00;99.90;;;;;;6223836;23;20444;-84
2022/08/22 01:03:03;;;;;;;10.80;4.07;;;19.90;99.90;;;;;;6222377;23;20406;-85
2022/08/22 01:05:52;;;;;;;7.70;4.37;;;19.90;99.90;;;;;;6224057;23;20763;-84
2022/08/22 01:08:38;;;;;;;8.00;4.33;;;19.80;99.90;;;;;;6223262;23;20451;-86
2022/08/22 01:11:21;;;;;;;9.20;4.50;;;19.80;99.90;;;;;;6224503;23;20465;-84
2022/08/22 01:14:18;;;;;;;6.67;3.90;;;19.80;99.90;;;;;;6223946;23;20372;-84
2022/08/22 01:17:15;;;;;;;5.80;4.30;;;19.80;99.90;;;;;;6223007;23;20380;-85
2022/08/22 01:19:59;;;;;;;5.50;3.83;;;19.70;99.90;;;;;;6223975;23;20412;-85
2022/08/22 01:22:55;;;;;;;10.47;4.57;;;19.70;99.90;;;;;;6223005;23;20854;-85
2022/08/22 01:25:28;;;;;;;6.30;3.80;;;19.70;99.90;;;;;;6223656;23;20415;-84
2022/08/22 01:28:35;;;;;;;8.83;3.60;;;19.60;99.90;;;;;;6223075;23;20384;-84
2022/08/22 01:31:22;;;;;;;11.47;3.77;;;19.60;99.90;;;;;;6218200;23;20382;-84
2022/08/22 01:34:25;;;;;;;6.47;4.43;;;19.60;99.90;;;;;;6219031;23;20400;-86
2022/08/22 01:37:13;;;;;;;8.40;4.50;;;19.60;99.90;;;;;;6219526;23;20460;-84
2022/08/22 01:40:06;;;;;;;6.50;4.03;;;19.60;99.90;;;;;;6218768;23;20775;-84
2022/08/22 01:42:34;;;;;;;10.70;4.33;;;19.60;99.90;;;;;;6218284;23;20377;-86
2022/08/22 01:45:17;;;;;;;5.40;3.20;;;19.50;99.90;;;;;;6220073;23;20848;-84
2022/08/22 01:48:04;;;;;;;7.20;4.30;;;19.50;99.90;;;;;;6217239;23;20482;-84
2022/08/22 01:50:45;;;;;;;6.13;3.80;;;19.50;99.90;;;;;;6216974;23;20948;-84
2022/08/22 01:53:27;;;;;;;14.07;4.00;;;19.50;99.90;;;;;;6217520;23;20384;-87
2022/08/22 01:56:14;;;;;;;7.13;4.00;;;19.40;99.90;;;;;;6218157;23;20378;-84
2022/08/22 01:58:54;;;;;;;7.90;4.07;;;19.40;99.90;;;;;;6218662;23;20438;-85
2022/08/22 02:01:22;;;;;;;10.17;3.83;;;19.40;99.90;;;;;;6217733;23;20439;-83
2022/08/22 02:03:56;;;;;;;9.23;4.07;;;19.40;99.90;;;;;;6218122;23;20388;-84
2022/08/22 02:07:05;;;;;;;7.40;3.77;;;19.30;99.90;;;;;;6242252;23;20416;-84
2022/08/22 02:09:46;;;;;;;5.97;4.57;;;19.40;99.90;;;;;;6131598;23;20415;-84
2022/08/22 02:12:40;;;;;;;6.27;4.03;;;19.30;99.90;;;;;;6208419;23;20395;-86
2022/08/22 02:15:29;;;;;;;8.77;3.83;;;19.30;99.90;;;;;;6217612;23;20407;-84
2022/08/22 02:17:58;;;;;;;13.20;3.90;;;19.30;99.90;;;;;;6218787;23;20360;-85
2022/08/22 02:20:29;;;;;;;4.57;3.70;;;19.30;99.90;;;;;;6218264;23;20401;-84
2022/08/22 02:23:07;;;;;;;8.17;3.87;;;19.30;1.00;;;;;;6218400;23;20515;-88
2022/08/22 02:26:00;;;;;;;5.93;3.73;;;19.40;1.00;;;;;;6217613;23;20424;-84
2022/08/22 02:28:49;;;;;;;11.70;4.30;;;19.30;1.00;;;;;;6217312;23;20383;-86
2022/08/22 02:31:24;;;;;;;6.87;3.90;;;19.30;1.00;;;;;;6219625;23;20369;-88
2022/08/22 02:33:57;;;;;;;5.80;3.80;;;19.30;1.00;;;;;;6193123;23;20376;-84
2022/08/22 02:36:44;;;;;;;6.23;4.07;;;19.30;1.00;;;;;;6192617;23;20401;-84
2022/08/22 02:39:20;;;;;;;10.37;4.60;;;19.30;1.00;;;;;;6193517;23;20399;-84
2022/08/22 02:42:20;;;;;;;9.10;4.70;;;19.20;1.00;;;;;;6193274;23;20378;-84
2022/08/22 02:45:10;;;;;;;6.80;4.33;;;19.20;1.00;;;;;;6193129;23;20375;-84
2022/08/22 02:47:45;;;;;;;7.00;5.10;;;19.20;1.00;;;;;;6193219;23;20397;-84
2022/08/22 02:50:29;;;;;;;6.37;4.00;;;19.20;1.00;;;;;;6192402;23;20527;-84
2022/08/22 02:53:26;;;;;;;8.40;3.87;;;19.20;1.00;;;;;;6193407;23;20407;-84
2022/08/22 02:56:02;;;;;;;9.47;4.67;;;19.20;1.00;;;;;;6193847;23;20381;-87
2022/08/22 02:58:39;;;;;;;8.50;4.80;;;19.20;1.00;;;;;;6193457;23;20465;-87
2022/08/22 03:01:32;;;;;;;7.10;4.60;;;19.20;1.00;;;;;;6192345;23;20377;-83
2022/08/22 03:04:16;;;;;;;5.80;4.10;;;19.20;1.00;;;;;;6192733;23;20381;-84
2022/08/22 03:07:02;;;;;;;7.40;3.90;;;19.20;1.00;;;;;;6192472;23;20448;-86
2022/08/22 03:10:05;;;;;;;8.97;5.17;;;19.10;1.00;;;;;;6191907;23;20401;-86
2022/08/22 03:12:54;;;;;;;9.30;4.93;;;19.10;1.00;;;;;;6193094;23;20442;-84
2022/08/22 03:15:27;;;;;;;5.50;4.53;;;19.10;1.00;;;;;;6193874;23;20405;-87
2022/08/22 03:18:11;;;;;;;14.17;4.27;;;19.00;1.00;;;;;;6220131;23;20687;-84
2022/08/22 03:20:45;;;;;;;6.70;4.30;;;19.00;1.00;;;;;;6193578;23;20406;-85
2022/08/22 03:23:35;;;;;;;8.00;4.70;;;19.00;1.00;;;;;;6193058;23;20457;-84
2022/08/22 03:26:35;;;;;;;10.83;5.90;;;19.00;1.00;;;;;;6192554;23;20419;-90
2022/08/22 03:29:14;;;;;;;13.07;5.63;;;19.00;1.00;;;;;;6174966;23;20421;-84
2022/08/22 03:32:02;;;;;;;7.47;5.60;;;18.90;1.00;;;;;;6219261;23;20414;-87
2022/08/22 03:34:28;;;;;;;9.40;5.57;;;18.90;1.00;;;;;;6218915;23;20374;-85
2022/08/22 03:37:14;;;;;;;14.53;7.20;;;18.90;1.00;;;;;;6219087;23;20403;-84
2022/08/22 03:40:01;;;;;;;7.70;5.73;;;18.80;1.00;;;;;;6220637;23;20412;-84
2022/08/22 03:43:01;;;;;;;12.63;5.43;;;18.80;1.00;;;;;;6220257;23;20358;-86
2022/08/22 03:45:59;;;;;;;7.07;4.67;;;18.80;1.00;;;;;;6220292;23;20915;-84
2022/08/22 03:49:04;;;;;;;13.03;5.97;;;18.70;1.00;;;;;;6219849;23;20377;-84
2022/08/22 03:51:59;;;;;;;11.53;6.10;;;18.70;5.10;;;;;;6220482;23;20405;-86
2022/08/22 03:54:51;;;;;;;13.10;5.67;;;18.70;9.00;;;;;;6214657;23;20408;-84
2022/08/22 03:57:34;;;;;;;6.90;5.03;;;18.70;37.60;;;;;;6219463;23;20790;-90
2022/08/22 04:00:10;;;;;;;12.10;5.30;;;18.60;46.60;;;;;;6220155;23;20414;-84
2022/08/22 04:02:54;;;;;;;8.50;5.50;;;18.60;99.90;;;;;;6221556;23;20362;-84
2022/08/22 04:05:46;;;;;;;7.73;5.30;;;18.60;99.90;;;;;;6219080;23;20422;-85
2022/08/22 04:08:49;;;;;;;6.10;4.40;;;18.60;99.90;;;;;;6184812;23;20391;-84
2022/08/22 04:11:37;;;;;;;12.90;6.07;;;18.50;99.90;;;;;;6221647;23;21154;-83
2022/08/22 04:14:25;;;;;;;8.20;5.27;;;18.40;99.90;;;;;;6219521;23;20492;-84
2022/08/22 04:17:14;;;;;;;14.63;5.50;;;18.30;1.00;;;;;;6219053;23;20386;-84
2022/08/22 04:20:18;;;;;;;12.40;6.53;;;18.30;1.00;;;;;;6219409;23;20720;-84
2022/08/22 04:23:10;;;;;;;8.53;5.57;;;18.20;1.00;;;;;;6218999;23;20699;-84
2022/08/22 04:25:49;;;;;;;9.17;5.63;;;18.10;1.00;;;;;;6219060;23;20428;-85
2022/08/22 04:28:21;;;;;;;12.87;6.60;;;18.10;1.00;;;;;;6219101;23;20380;-84
2022/08/22 04:31:07;;;;;;;15.37;5.87;;;18.10;1.00;;;;;;6218846;23;20411;-84
2022/08/22 04:33:44;;;;;;;9.90;5.60;;;18.10;1.00;;;;;;6219309;23;20904;-83
2022/08/22 04:36:26;;;;;;;7.50;5.07;;;18.20;1.00;;;;;;6218932;23;20419;-84
2022/08/22 04:39:08;;;;;;;10.40;5.93;;;18.20;1.00;;;;;;6219617;23;20493;-84
2022/08/22 04:42:01;;;;;;;6.60;5.20;;;18.20;1.00;;;;;;6218575;23;20412;-84
2022/08/22 04:44:41;;;;;;;7.20;5.43;;;18.20;1.00;;;;;;6219915;23;20369;-84
2022/08/22 04:47:44;;;;;;;8.73;5.50;;;18.20;1.00;;;;;;6217824;23;20477;-87
2022/08/22 04:50:24;;;;;;;10.97;5.87;;;18.30;1.00;;;;;;6220511;23;20387;-85
2022/08/22 04:52:56;;;;;;;16.10;8.30;;;18.30;1.00;;;;;;6219500;23;20841;-84
2022/08/22 04:55:38;;;;;;;11.20;5.97;;;18.30;1.00;;;;;;6217810;23;20391;-84
2022/08/22 04:58:32;;;;;;;13.80;7.60;;;18.40;1.00;;;;;;6219440;23;20376;-86
2022/08/22 05:01:13;;;;;;;10.87;6.40;;;18.40;1.00;;;;;;6219176;23;20402;-84
2022/08/22 05:03:50;;;;;;;15.13;6.43;;;18.50;1.00;;;;;;6220345;23;20461;-84
2022/08/22 05:06:19;;;;;;;12.00;5.20;;;18.60;99.90;;;;;;6218156;23;20435;-84
2022/08/22 05:08:47;;;;;;;8.83;5.70;;;18.60;99.90;;;;;;6217698;23;20433;-84
2022/08/22 05:11:14;;;;;;;8.27;6.37;;;18.70;99.90;;;;;;6218531;23;20409;-85
2022/08/22 05:13:45;;;;;;;9.40;6.50;;;18.80;99.90;;;;;;6217688;23;20385;-84
2022/08/22 05:16:20;;;;;;;9.03;6.07;;;18.80;99.90;;;;;;6218158;23;20387;-84
2022/08/22 05:19:08;;;;;;;10.10;6.13;;;18.90;99.90;;;;;;6218270;23;20482;-83
2022/08/22 05:21:37;;;;;;;10.27;7.03;;;19.00;99.90;;;;;;6218342;23;20373;-84
2022/08/22 05:24:10;;;;;;;14.53;7.53;;;19.20;99.90;;;;;;6219042;23;20401;-83
2022/08/22 05:26:43;;;;;;;13.23;8.17;;;19.40;99.90;;;;;;6220128;23;20423;-84
2022/08/22 05:29:12;;;;;;;11.63;6.70;;;20.50;35.60;;;;;;6221873;23;20414;-85
2022/08/22 05:32:01;;;;;;;7.63;6.60;;;23.40;99.90;;;;;;6218485;23;20388;-84
2022/08/22 05:34:33;;;;;;;6.17;5.57;;;26.40;99.90;;;;;;6217998;23;20360;-84
2022/08/22 05:37:03;;;;;;;9.43;5.37;;;28.60;99.90;;;;;;6213855;23;20389;-84
2022/08/22 05:39:30;;;;;;;6.77;5.07;;;30.50;99.90;;;;;;6214940;23;20393;-84
2022/08/22 05:41:59;;;;;;;9.27;4.93;;;32.20;99.90;;;;;;6213834;23;20393;-85
2022/08/22 05:44:31;;;;;;;8.30;4.80;;;33.70;99.90;;;;;;6213360;23;20471;-86
2022/08/22 05:47:14;;;;;;;8.00;4.73;;;35.20;99.90;;;;;;6212433;23;20424;-85
2022/08/22 05:49:52;;;;;;;8.97;4.50;;;37.00;99.90;;;;;;6212004;23;20411;-85
2022/08/22 05:52:43;;;;;;;11.33;5.00;;;39.10;99.90;;;;;;6213379;23;20376;-85
2022/08/22 05:55:22;;;;;;;13.17;4.77;;;40.90;99.90;;;;;;6213352;23;20466;-83
2022/08/22 05:58:02;;;;;;;5.83;3.80;;;42.30;95.80;;;;;;6212462;23;20393;-83
2022/08/22 06:00:34;;;;;;;9.67;4.67;;;42.00;86.50;;;;;;6213558;23;20415;-83
2022/08/22 06:03:12;;;;;;;9.10;4.30;;;42.80;77.40;;;;;;6212370;23;20384;-83
2022/08/22 06:05:41;;;;;;;4.87;3.40;;;43.30;65.40;;;;;;6211992;23;20515;-87
2022/08/22 06:08:20;;;;;;;6.60;3.90;;;44.90;59.50;;;;;;6212965;23;20381;-82
2022/08/22 06:10:51;;;;;;;8.10;3.83;;;46.70;54.20;;;;;;6213816;23;20359;-83
2022/08/22 06:13:41;;;;;;;6.57;4.20;;;48.00;47.80;;;;;;6214700;23;20443;-84
2022/08/22 06:16:28;;;;;;;7.43;3.83;;;49.20;41.70;;;;;;6212868;23;20382;-82
2022/08/22 06:18:56;;;;;;;5.93;3.40;;;50.30;35.20;;;;;;6213292;23;20407;-83
2022/08/22 06:21:32;;;;;;;7.60;4.00;;;51.20;29.60;;;;;;6212978;23;20762;-83
2022/08/22 06:23:59;;;;;;;7.27;3.43;;;52.00;25.50;;;;;;6213444;23;20149;-85
2022/08/22 06:26:30;;;;;;;12.45;3.83;;;52.90;22.40;;;;;;6211953;23;20276;-84
2022/08/22 06:28:59;;;;;;;5.05;3.50;;;53.40;19.30;;;;;;6213334;23;20280;-85
2022/08/22 06:31:45;;;;;;;5.85;3.72;;;53.50;15.10;;;;;;6213585;23;20149;-83
2022/08/22 06:34:24;;;;;;;6.80;3.45;;;53.70;11.90;;;;;;6211661;23;20495;-84
2022/08/22 06:36:51;;;;;;;5.75;3.33;;;54.40;10.10;;;;;;6211517;23;20256;-84
2022/08/22 06:39:23;;;;;;;7.55;3.83;;;55.50;8.60;;;;;;6211100;23;20173;-83
2022/08/22 06:42:07;;;;;;;5.25;3.22;;;56.80;7.70;;;;;;6212611;23;20626;-84
2022/08/22 06:44:47;;;;;;;9.38;3.83;;;57.90;6.30;;;;;;6211924;23;20129;-84
2022/08/22 06:47:29;;;;;;;8.25;3.70;;;57.30;3.40;;;;;;6211888;23;20224;-84
2022/08/22 06:50:35;;;;;;;7.07;3.42;;;55.30;1.00;;;;;;6212733;23;20173;-84
2022/08/22 06:53:10;;;;;;;10.80;4.23;;;52.70;1.00;;;;;;6198656;23;20152;-83
2022/08/22 06:55:40;;;;;;;7.43;4.43;;;48.00;1.00;;;;;;6210075;23;20434;-82
2022/08/22 06:58:13;;;;;;;9.00;4.67;;;44.40;1.00;;;;;;6210988;23;20864;-82
2022/08/22 07:00:41;;;;;;;14.30;5.17;;;41.30;1.00;;;;;;6214062;23;20400;-82
2022/08/22 07:03:19;;;;;;;7.87;5.13;;;38.60;1.00;;;;;;6213065;23;20392;-82
2022/08/22 07:05:45;;;;;;;10.70;5.10;;;36.80;1.00;;;;;;6212469;23;20735;-83
2022/08/22 07:08:13;;;;;;;9.03;5.83;;;35.30;1.00;;;;;;6215520;23;20384;-82
2022/08/22 07:10:57;;;;;;;10.03;5.00;;;34.30;1.00;;;;;;6214782;23;20397;-82
2022/08/22 07:14:03;;;;;;;11.80;6.20;;;33.60;1.00;;;;;;6214845;23;20384;-82
2022/08/22 07:16:50;;;;;;;7.40;5.20;;;32.90;1.00;;;;;;6188085;23;20962;-82
2022/08/22 07:29:32;;;;;;;10.47;5.23;;;30.70;4.40;;;;;;6217882;22;20458;-81
2022/08/22 07:32:20;;;;;;;11.30;5.20;;;30.10;5.70;;;;;;6311044;22;20377;-83
2022/08/22 07:35:12;;;;;;;11.53;6.40;;;29.70;8.10;;;;;;6309277;22;20369;-84
2022/08/22 07:37:50;;;;;;;9.67;5.40;;;29.40;9.80;;;;;;6308281;22;20726;-83
2022/08/22 07:40:22;;;;;;;12.03;6.03;;;29.10;11.70;;;;;;6258309;22;20465;-83
2022/08/22 07:42:59;;;;;;;8.80;5.17;;;28.80;13.90;;;;;;6279627;22;20425;-83
2022/08/22 07:45:49;;;;;;;13.10;5.40;;;28.60;15.70;;;;;;6280349;22;20360;-83
2022/08/22 07:48:33;;;;;;;13.47;5.60;;;28.40;17.90;;;;;;6280877;22;20371;-83
2022/08/22 07:51:12;;;;;;;15.47;4.97;;;28.40;19.90;;;;;;6280217;22;20785;-84
2022/08/22 07:53:42;;;;;;;11.90;4.40;;;28.40;21.80;;;;;;6280777;22;20363;-83
2022/08/22 07:56:15;;;;;;;13.37;4.30;;;28.50;23.70;;;;;;6278621;22;20407;-83
2022/08/22 07:58:43;;;;;;;10.97;3.67;;;28.70;25.60;;;;;;6278156;22;20395;-84
2022/08/22 08:01:14;;;;;;;8.90;3.60;;;29.00;26.50;;;;;;6253457;22;20387;-83
2022/08/22 08:03:40;;;;;;;8.97;3.40;;;29.50;27.80;;;;;;6254709;22;20759;-84
2022/08/22 08:06:08;;;;;;;6.67;3.30;;;29.90;28.60;;;;;;6253761;22;20399;-84
2022/08/22 08:08:44;;;;;;;4.33;2.90;;;30.20;29.40;;;;;;6251071;22;20394;-84
2022/08/22 08:11:12;;;;;;;9.97;3.17;;;30.70;30.80;;;;;;6275092;22;20395;-84
2022/08/22 08:13:45;;;;;;;6.87;3.13;;;31.10;31.40;;;;;;6248230;22;20444;-83
2022/08/22 08:16:18;;;;;;;5.10;2.57;;;31.60;32.10;;;;;;6276419;22;20427;-84
2022/08/22 08:18:47;;;;;;;5.87;2.70;;;31.70;32.10;;;;;;6274007;22;20447;-84
2022/08/22 08:21:36;;;;;;;5.90;3.00;;;31.60;32.30;;;;;;6244048;22;20436;-86
2022/08/22 08:24:04;;;;;;;5.20;3.20;;;31.80;31.80;;;;;;6275469;22;20861;-84
2022/08/22 08:26:34;;;;;;;10.20;2.93;;;31.80;31.30;;;;;;6275808;22;20812;-84
2022/08/22 08:29:01;;;;;;;7.90;3.63;;;31.50;31.70;;;;;;6252546;22;20414;-84
2022/08/22 08:31:36;;;;;;;7.20;3.00;;;31.20;30.20;;;;;;6250558;22;20437;-84
2022/08/22 08:34:08;;;;;;;7.13;3.00;;;31.00;29.70;;;;;;6249307;22;20430;-84
2022/08/22 08:36:52;;;;;;;9.70;3.50;;;30.90;29.40;;;;;;6247309;22;20418;-84
2022/08/22 08:39:35;;;;;;;10.50;3.10;;;30.70;29.30;;;;;;6278965;22;20423;-84
2022/08/22 08:46:08;;;;;;;10.00;3.37;;;30.40;29.80;;;;;;6124743;23;20365;-84
2022/08/22 08:48:42;;;;;;;6.20;3.37;;;30.20;30.90;;;;;;6279794;22;20351;-84
2022/08/22 08:51:08;;;;;;;12.40;3.37;;;30.00;31.50;;;;;;6279317;22;20366;-84
2022/08/22 08:53:54;;;;;;;6.70;3.30;;;29.80;32.00;;;;;;6281633;22;20434;-84
2022/08/22 08:56:24;;;;;;;9.63;3.37;;;29.70;31.80;;;;;;6279972;22;20189;-84
2022/08/22 08:58:56;;;;;;;9.80;3.40;;;29.40;31.60;;;;;;6281447;22;20478;-84
2022/08/22 09:02:08;;;;;;;7.37;3.17;;;29.20;33.20;;;;;;6281351;22;20371;-84
2022/08/22 09:05:11;;;;;;;9.17;2.90;;;29.00;32.80;;;;;;6126754;23;20390;-84
2022/08/22 09:07:57;;;;;;;4.63;2.70;;;29.00;32.70;;;;;;6126377;23;20364;-84
2022/08/22 09:11:04;;;;;;;6.43;2.50;;;28.90;34.60;;;;;;6266608;22;20408;-84
2022/08/22 09:13:52;;;;;;;4.30;2.77;;;28.80;34.30;;;;;;6277381;22;20764;-84
2022/08/22 09:16:35;;;;;;;5.07;2.63;;;28.80;34.60;;;;;;6251541;22;20970;-83
2022/08/22 09:19:09;;;;;;;8.73;3.00;;;28.90;35.10;;;;;;6279992;22;20391;-84
2022/08/22 09:22:00;;;;;;;4.37;2.70;;;29.10;36.90;;;;;;6278242;22;20362;-84
2022/08/22 09:24:47;;;;;;;8.20;2.47;;;29.40;37.70;;;;;;6279849;22;20355;-84
2022/08/22 09:27:22;;;;;;;6.07;2.73;;;29.70;39.60;;;;;;6277478;22;20355;-84
2022/08/22 09:30:04;;;;;;;6.97;2.77;;;29.80;38.80;;;;;;6278285;22;20434;-84
2022/08/22 09:32:59;;;;;;;4.93;2.80;;;30.20;40.10;;;;;;6278206;22;20363;-85
2022/08/22 09:35:44;;;;;;;8.50;3.00;;;31.10;41.90;;;;;;6268007;22;20422;-84
2022/08/22 09:38:12;;;;;;;4.93;2.73;;;32.10;44.00;;;;;;6248795;22;20386;-84
2022/08/22 09:41:16;;;;;;;5.60;2.60;;;32.80;43.90;;;;;;6274748;22;20536;-84
2022/08/22 09:43:59;;;;;;;5.20;2.40;;;33.40;44.20;;;;;;6197895;22;20767;-84
2022/08/22 09:46:30;;;;;;;9.97;2.67;;;33.80;43.40;;;;;;6271600;22;20699;-85
2022/08/22 09:49:11;;;;;;;8.43;2.47;;;33.80;40.80;;;;;;6247242;22;21104;-84
2022/08/22 09:52:04;;;;;;;6.40;2.23;;;33.70;51.10;;;;;;6275631;22;20467;-84
2022/08/22 09:54:43;;;;;;;6.17;2.27;;;33.60;36.80;;;;;;6276940;22;20395;-84
2022/08/22 09:57:22;;;;;;;6.67;2.40;;;33.50;35.00;;;;;;6275355;22;20873;-81
2022/08/22 10:00:08;;;;;;;6.03;2.70;;;33.40;34.60;;;;;;6248678;22;20528;-81
2022/08/22 10:02:42;;;;;;;5.10;2.40;;;33.50;33.10;;;;;;6276525;22;20756;-81
2022/08/22 10:05:14;;;;;;;5.83;2.37;;;33.50;32.20;;;;;;6248186;22;20369;-81
2022/08/22 10:08:01;;;;;;;5.37;2.60;;;33.70;31.80;;;;;;6273717;22;20766;-82
2022/08/22 10:10:45;;;;;;;7.70;2.07;;;33.80;31.20;;;;;;6275360;22;20395;-84
2022/08/22 10:13:31;;;;;;;7.57;2.40;;;33.90;33.10;;;;;;6275116;22;20359;-85
2022/08/22 10:16:08;;;;;;;7.13;2.80;;;34.00;29.90;;;;;;6273865;22;20799;-84
2022/08/22 10:18:54;;;;;;;10.27;2.77;;;34.20;29.10;;;;;;6275530;22;20374;-84
2022/08/22 10:21:36;;;;;;;5.63;3.00;;;34.20;28.70;;;;;;6274713;22;20351;-84
2022/08/22 10:24:12;;;;;;;6.23;2.90;;;34.20;27.10;;;;;;6275882;22;20359;-84
2022/08/22 10:26:53;;;;;;;7.77;2.93;;;34.40;26.80;;;;;;6274464;22;20367;-86
2022/08/22 10:29:55;;;;;;;5.70;2.10;;;34.60;26.50;;;;;;6243754;22;20425;-84
2022/08/22 10:32:42;;;;;;;8.20;2.53;;;35.10;26.60;;;;;;6246313;22;20383;-86
2022/08/22 10:35:19;;;;;;;5.70;2.10;;;35.80;26.90;;;;;;6271457;22;20710;-85
2022/08/22 10:38:03;;;;;;;7.47;2.90;;;36.70;26.70;;;;;;6271090;22;20386;-85
2022/08/22 10:40:40;;;;;;;7.50;2.67;;;37.60;26.70;;;;;;6246011;22;20415;-83
2022/08/22 10:43:43;;;;;;;5.90;2.80;;;37.90;25.70;;;;;;6272423;22;20845;-82
2022/08/22 10:46:16;;;;;;;8.90;2.50;;;38.20;24.40;;;;;;6237273;22;20440;-84
2022/08/22 10:48:57;;;;;;;5.70;2.63;;;38.40;23.50;;;;;;6245370;22;20909;-84
2022/08/22 10:51:34;;;;;;;10.80;2.40;;;38.60;22.10;;;;;;6246077;22;20720;-83
2022/08/22 10:54:18;;;;;;;6.10;2.00;;;38.50;20.70;;;;;;6244969;22;20471;-82
2022/08/22 10:56:54;;;;;;;4.03;2.20;;;38.40;19.80;;;;;;6245662;22;20410;-83
2022/08/22 10:59:27;;;;;;;7.47;3.70;;;38.10;17.90;;;;;;6246011;22;20410;-82
2022/08/22 11:02:05;;;;;;;4.90;2.50;;;37.70;16.80;;;;;;6271902;22;20363;-82
2022/08/22 11:04:58;;;;;;;6.73;2.97;;;37.20;15.60;;;;;;6274332;22;20390;-86
2022/08/22 11:07:45;;;;;;;7.40;2.90;;;36.60;23.90;;;;;;6272140;22;20359;-85
2022/08/22 11:10:25;;;;;;;5.63;2.63;;;36.30;12.40;;;;;;6245907;22;20414;-85
2022/08/22 11:13:14;;;;;;;7.93;3.43;;;35.90;12.00;;;;;;6273887;22;20379;-85
2022/08/22 11:15:58;;;;;;;10.17;3.70;;;35.40;11.40;;;;;;6275036;22;20407;-84
2022/08/22 11:19:12;;;;;;;5.87;3.17;;;35.00;10.90;;;;;;6246576;22;20403;-85
2022/08/22 11:21:52;;;;;;;9.33;2.90;;;34.90;10.70;;;;;;6272641;22;20429;-85
2022/08/22 11:24:30;;;;;;;6.57;3.33;;;35.00;11.70;;;;;;6274017;22;20379;-85
2022/08/22 11:27:17;;;;;;;10.00;2.73;;;35.50;13.00;;;;;;6271558;22;20802;-84
2022/08/22 11:29:57;;;;;;;8.30;3.27;;;36.00;13.80;;;;;;6272848;22;20493;-87
2022/08/22 11:32:39;;;;;;;4.30;2.50;;;36.40;14.40;;;;;;6273709;22;20363;-82
2022/08/22 11:35:09;;;;;;;6.47;2.70;;;36.70;13.80;;;;;;6275102;22;20367;-82
2022/08/22 11:37:38;;;;;;;8.93;2.20;;;36.60;13.40;;;;;;6275931;22;20765;-84
2022/08/22 11:40:19;;;;;;;5.80;2.50;;;36.60;13.00;;;;;;6275840;22;20395;-84
2022/08/22 11:43:06;;;;;;;7.63;2.50;;;36.40;12.50;;;;;;6275873;22;20363;-84
2022/08/22 11:45:38;;;;;;;5.57;2.23;;;36.80;13.70;;;;;;6248148;22;20401;-84
2022/08/22 11:48:17;;;;;;;7.33;2.40;;;37.70;14.40;;;;;;6247191;22;20406;-82
2022/08/22 11:50:49;;;;;;;7.13;2.37;;;38.40;14.40;;;;;;6247528;22;20743;-84
2022/08/22 11:53:34;;;;;;;8.13;2.93;;;38.60;13.80;;;;;;6275327;22;20429;-82
2022/08/22 11:56:35;;;;;;;6.60;2.63;;;38.50;13.20;;;;;;6273832;22;20492;-83
2022/08/22 11:59:21;;;;;;;8.30;2.90;;;38.30;12.00;;;;;;6273849;22;20390;-82
2022/08/22 12:01:58;;;;;;;10.87;3.30;;;38.50;11.50;;;;;;6273949;22;20351;-83
2022/08/22 12:04:39;;;;;;;7.00;2.40;;;38.50;10.80;;;;;;6274005;22;20355;-82
2022/08/22 12:07:30;;;;;;;6.07;2.27;;;38.30;9.20;;;;;;6273012;22;20371;-82
2022/08/22 12:10:19;;;;;;;9.17;2.50;;;38.30;9.40;;;;;;6273802;22;20392;-82
2022/08/22 12:13:06;;;;;;;5.50;2.33;;;38.50;9.70;;;;;;6274398;22;21068;-84
2022/08/22 12:15:57;;;;;;;5.70;2.30;;;39.50;10.40;;;;;;6274340;22;20425;-82
2022/08/22 12:18:45;;;;;;;5.47;2.40;;;40.10;10.10;;;;;;6273306;22;20368;-82
2022/08/22 12:21:50;;;;;;;7.70;3.00;;;40.70;9.50;;;;;;6274154;22;20478;-82
2022/08/22 12:24:31;;;;;;;4.80;2.30;;;41.50;9.90;;;;;;6274954;22;20848;-82
2022/08/22 12:27:16;;;;;;;7.53;2.57;;;41.60;8.10;;;;;;6247052;22;20385;-82
2022/08/22 12:30:03;;;;;;;8.60;2.93;;;42.00;7.90;;;;;;6275937;22;20414;-82
2022/08/22 12:32:42;;;;;;;8.30;4.00;;;41.90;6.00;;;;;;6276735;22;20367;-82
2022/08/22 12:35:38;;;;;;;10.83;2.37;;;42.20;5.00;;;;;;6274341;22;20367;-83
2022/08/22 12:38:37;;;;;;;8.80;2.10;;;42.60;5.10;;;;;;6274349;22;20438;-83
2022/08/22 12:41:25;;;;;;;5.80;2.00;;;42.60;3.90;;;;;;6275762;22;20373;-83
2022/08/22 12:44:34;;;;;;;4.30;2.00;;;43.00;3.30;;;;;;6274967;22;20399;-83
2022/08/22 12:47:14;;;;;;;6.50;1.93;;;43.20;3.00;;;;;;6274563;22;20370;-82
2022/08/22 12:50:14;;;;;;;5.83;2.10;;;43.50;2.20;;;;;;6275498;22;20387;-83
2022/08/22 12:53:04;;;;;;;4.50;2.00;;;43.60;1.50;;;;;;6275611;22;20860;-82
2022/08/22 12:55:58;;;;;;;9.53;2.23;;;43.10;1.00;;;;;;6248801;22;20458;-82
2022/08/22 12:58:44;;;;;;;6.53;2.47;;;42.50;1.00;;;;;;6241059;22;20387;-84
2022/08/22 13:01:11;;;;;;;6.00;2.50;;;41.80;1.00;;;;;;6247966;22;20383;-82
2022/08/22 13:03:49;;;;;;;5.83;2.37;;;40.80;1.00;;;;;;6248453;22;20403;-83
2022/08/22 13:06:35;;;;;;;4.73;1.90;;;40.40;1.00;;;;;;6246375;22;20383;-82
2022/08/22 13:09:15;;;;;;;6.20;2.23;;;40.30;1.00;;;;;;6247899;22;20502;-82
2022/08/22 13:11:43;;;;;;;2.97;1.77;;;40.50;1.00;;;;;;6275377;22;20356;-82
2022/08/22 13:14:11;;;;;;;3.17;1.70;;;40.80;1.00;;;;;;6247014;22;20399;-81
2022/08/22 13:16:42;;;;;;;3.87;1.70;;;40.80;1.00;;;;;;6275086;22;20498;-82
2022/08/22 13:19:17;;;;;;;6.57;2.33;;;40.60;3.90;;;;;;6247114;22;20438;-82
2022/08/22 13:21:47;;;;;;;4.70;2.10;;;40.20;1.00;;;;;;6248098;22;20378;-82
2022/08/22 13:24:20;;;;;;;4.20;2.10;;;40.20;1.00;;;;;;6272363;22;20383;-82
2022/08/22 13:26:49;;;;;;;6.17;2.33;;;40.30;1.00;;;;;;6273026;22;20395;-82
2022/08/22 13:29:22;;;;;;;5.57;1.80;;;40.00;1.00;;;;;;6272171;22;20403;-82
2022/08/22 13:31:59;;;;;;;4.10;2.00;;;39.70;1.00;;;;;;6274160;22;20389;-82
2022/08/22 13:34:38;;;;;;;5.33;1.80;;;39.80;1.00;;;;;;6273467;22;20378;-82
2022/08/22 13:37:11;;;;;;;5.67;1.87;;;40.10;1.00;;;;;;6272529;22;20414;-82
2022/08/22 13:39:41;;;;;;;6.10;2.10;;;40.20;1.00;;;;;;6273583;22;20742;-82
2022/08/22 13:42:19;;;;;;;7.87;2.20;;;40.10;1.00;;;;;;6272203;22;20360;-82
2022/08/22 13:44:50;;;;;;;7.80;2.30;;;40.40;1.00;;;;;;6247124;22;20383;-82
2022/08/22 13:47:19;;;;;;;7.50;2.20;;;40.80;1.00;;;;;;6245442;22;20375;-82
2022/08/22 13:49:54;;;;;;;5.17;1.97;;;41.00;4.60;;;;;;6246744;22;20870;-82
2022/08/22 13:52:22;;;;;;;6.10;2.33;;;41.20;1.00;;;;;;6273102;22;20708;-82
2022/08/22 13:54:56;;;;;;;5.90;2.60;;;41.50;1.00;;;;;;6274137;22;20777;-82
2022/08/22 13:57:41;;;;;;;4.83;2.00;;;41.60;1.00;;;;;;6272144;22;20450;-83
2022/08/22 14:00:34;;;;;;;6.07;2.27;;;41.70;1.00;;;;;;6274535;22;20444;-82
2022/08/22 14:53:37;;;;;;;4.80;2.33;;;35.30;1.00;;;;;;6115273;23;20377;-85
2022/08/22 14:56:14;;;;;;;5.00;2.13;;;35.40;1.00;;;;;;6217976;23;20491;-81
2022/08/22 14:59:03;;;;;;;5.20;2.13;;;35.10;1.00;;;;;;6243347;22;20402;-85
2022/08/22 15:01:32;;;;;;;3.90;2.20;;;35.00;1.00;;;;;;6216187;23;20376;-85
2022/08/22 15:04:08;;;;;;;7.07;2.33;;;35.20;1.00;;;;;;6243046;23;20830;-85
2022/08/22 15:25:24;;;;;;;8.77;2.20;;;35.90;1.00;;;;;;6275138;22;20454;-83
2022/08/22 15:28:42;;;;;;;3.37;2.07;;;35.80;1.00;;;;;;6221872;23;20396;-82